Quechee, Vermont
Current Conditions -  °F | °C
As of 8:53 AM on Wednesday 22 Oct 2014 (Local Time) from KLEB Reporting Station
Overcast Overcast  
Wind Chill: 49°   Ceiling: 1700
Heat Index: 49°   Visibility: 10mi
Dew Point: 44°   Wind: 3mph
Humidity: 83%   Direction: 10°N
Pressure: 30.13"   Gusts: NA
Location:  43.65°N, 72.42°W
Report Text: KLEB 221253Z 01003KT 10SM SCT006 OVC017 09/07 A3013 RMK AO2 SLP204 T00940067
Loading
Personal Weather Stations






























Interactive Weather Map New forecast layout! Learn more

10-Day Weather Forecast

Advertisements
Track Severe Weather on mobile